createdAt,value
2016-06-02T00:00:03.548Z,20.4
2016-06-02T00:00:13.251Z,20.4
2016-06-02T00:00:23.391Z,20.4
2016-06-02T00:00:33.551Z,20.3
2016-06-02T00:00:43.394Z,20.3
2016-06-02T00:00:53.535Z,20.3
2016-06-02T00:01:03.394Z,20.3
2016-06-02T00:01:13.394Z,20.3
2016-06-02T00:01:23.535Z,20.4
2016-06-02T00:01:33.538Z,20.4
2016-06-02T00:01:43.538Z,20.4
2016-06-02T00:01:53.366Z,20.4
2016-06-02T00:02:03.522Z,20.4
2016-06-02T00:02:13.366Z,20.4
2016-06-02T00:02:23.366Z,20.4
2016-06-02T00:02:33.525Z,20.4
2016-06-02T00:02:43.229Z,20.4
2016-06-02T00:02:53.525Z,20.4
2016-06-02T00:03:03.557Z,20.4
2016-06-02T00:03:13.510Z,20.4
2016-06-02T00:03:23.510Z,20.4
2016-06-02T00:03:33.356Z,20.4
2016-06-02T00:03:43.496Z,20.4
2016-06-02T00:03:53.637Z,20.4
2016-06-02T00:04:03.246Z,20.4
2016-06-02T00:04:13.527Z,20.5
2016-06-02T00:04:23.340Z,20.5
2016-06-02T00:04:33.499Z,20.4
2016-06-02T00:04:43.327Z,20.4
2016-06-02T00:04:53.484Z,20.4
2016-06-02T00:05:03.484Z,20.5
2016-06-02T00:05:13.468Z,20.4
2016-06-02T00:05:23.468Z,20.5
2016-06-02T00:05:33.486Z,20.4
2016-06-02T00:05:43.486Z,20.4
2016-06-02T00:05:53.470Z,20.4
2016-06-02T00:06:03.470Z,20.5
2016-06-02T00:06:13.454Z,20.3
2016-06-02T00:06:23.470Z,20.3
2016-06-02T00:06:33.473Z,20.3
2016-06-02T00:06:43.457Z,20.3
2016-06-02T00:06:53.457Z,20.2
2016-06-02T00:07:03.473Z,20.2
2016-06-02T00:07:13.473Z,20.2
2016-06-02T00:07:23.457Z,20.3
2016-06-02T00:07:33.445Z,20.3
2016-06-02T00:07:43.445Z,20.3
2016-06-02T00:07:53.523Z,20.2
2016-06-02T00:08:03.445Z,20.3
2016-06-02T00:08:13.445Z,20.2
2016-06-02T00:08:23.445Z,20.3
2016-06-02T00:08:33.510Z,20.3
2016-06-02T00:08:43.291Z,20.3
2016-06-02T00:08:53.448Z,20.2
2016-06-02T00:09:03.291Z,20.3
2016-06-02T00:09:13.448Z,20.3
2016-06-02T00:09:24.010Z,20.3
2016-06-02T00:09:33.576Z,20.3
2016-06-02T00:09:44.216Z,20.3
2016-06-02T00:09:53.451Z,20.3
2016-06-02T00:10:03.419Z,20.3
2016-06-02T00:10:13.826Z,20.3
2016-06-02T00:10:24.357Z,20.3
2016-06-02T00:10:33.640Z,20.3
2016-06-02T00:10:43.406Z,20.2
2016-06-02T00:10:53.406Z,20.3
2016-06-02T00:11:03.390Z,20.3
2016-06-02T00:11:13.437Z,20.3
2016-06-02T00:11:23.281Z,20.3
2016-06-02T00:11:33.392Z,20.4
2016-06-02T00:11:43.377Z,20.4
2016-06-02T00:11:53.314Z,20.4
2016-06-02T00:12:03.408Z,20.4
2016-06-02T00:12:13.236Z,20.4
2016-06-02T00:12:23.377Z,20.5
2016-06-02T00:12:33.396Z,20.5
2016-06-02T00:12:43.381Z,20.5
2016-06-02T00:12:53.381Z,20.5
2016-06-02T00:13:03.381Z,20.5
2016-06-02T00:13:13.443Z,20.5
2016-06-02T00:13:23.381Z,20.5
2016-06-02T00:13:33.367Z,20.5
2016-06-02T00:13:43.367Z,20.5
2016-06-02T00:13:53.367Z,20.5
2016-06-02T00:14:03.351Z,20.5
2016-06-02T00:14:13.367Z,20.5
2016-06-02T00:14:23.211Z,20.5
2016-06-02T00:14:33.214Z,20.5
2016-06-02T00:14:43.339Z,20.5
2016-06-02T00:14:53.354Z,20.4
2016-06-02T00:15:03.354Z,20.4
2016-06-02T00:15:13.432Z,20.4
2016-06-02T00:15:23.354Z,20.3
2016-06-02T00:15:33.341Z,20.3
2016-06-02T00:15:43.341Z,20.3
2016-06-02T00:15:53.341Z,20.3
2016-06-02T00:16:03.325Z,20.3
2016-06-02T00:16:13.341Z,20.3
2016-06-02T00:16:23.169Z,20.3
2016-06-02T00:16:33.234Z,20.3
2016-06-02T00:16:43.328Z,20.3
2016-06-02T00:16:53.328Z,20.3
2016-06-02T00:17:03.312Z,20.3
2016-06-02T00:17:13.328Z,20.2
2016-06-02T00:17:23.312Z,20.3
2016-06-02T00:17:33.315Z,20.3
2016-06-02T00:17:43.315Z,20.3
2016-06-02T00:17:53.347Z,20.4
2016-06-02T00:18:03.315Z,20.3
2016-06-02T00:18:13.159Z,20.3
2016-06-02T00:18:23.300Z,20.4
2016-06-02T00:18:33.365Z,20.3
2016-06-02T00:18:43.318Z,20.3
2016-06-02T00:18:53.334Z,20.3
2016-06-02T00:19:03.303Z,20.2
2016-06-02T00:19:13.318Z,20.4
2016-06-02T00:19:23.287Z,20.3
2016-06-02T00:19:33.336Z,20.4
2016-06-02T00:19:43.305Z,20.4
2016-06-02T00:19:54.274Z,20.4
2016-06-02T00:20:03.274Z,20.4
2016-06-02T00:20:13.336Z,20.3
2016-06-02T00:20:23.289Z,20.4
2016-06-02T00:20:33.292Z,20.4
2016-06-02T00:20:43.277Z,20.3
2016-06-02T00:20:53.198Z,20.3
2016-06-02T00:21:03.292Z,20.3
2016-06-02T00:21:13.261Z,20.3
2016-06-02T00:21:23.277Z,20.2
2016-06-02T00:21:33.342Z,20.2
2016-06-02T00:21:43.248Z,20.1
2016-06-02T00:21:53.295Z,20.1
2016-06-02T00:22:03.248Z,20.2
2016-06-02T00:22:13.248Z,20.1
2016-06-02T00:22:23.092Z,20.2
2016-06-02T00:22:33.094Z,20.2
2016-06-02T00:22:43.235Z,20.2
2016-06-02T00:22:53.313Z,20.2
2016-06-02T00:23:03.094Z,20.2
2016-06-02T00:23:13.282Z,20.2
2016-06-02T00:23:23.219Z,20.2
2016-06-02T00:23:33.113Z,20.3
2016-06-02T00:23:43.238Z,20.3
2016-06-02T00:23:53.285Z,20.3
2016-06-02T00:24:03.222Z,20.3
2016-06-02T00:24:13.316Z,20.3
2016-06-02T00:24:23.363Z,20.3
2016-06-02T00:24:33.334Z,20.3
2016-06-02T00:24:43.678Z,20.3
2016-06-02T00:24:53.334Z,20.4
2016-06-02T00:25:03.116Z,20.3
2016-06-02T00:25:13.772Z,20.3
2016-06-02T00:25:23.459Z,20.3
2016-06-02T00:25:33.368Z,20.2
2016-06-02T00:25:43.196Z,20.3
2016-06-02T00:25:53.290Z,20.3
2016-06-02T00:26:03.180Z,20.3
2016-06-02T00:26:13.071Z,20.3
2016-06-02T00:26:23.180Z,20.3
2016-06-02T00:26:33.199Z,20.4
2016-06-02T00:26:43.043Z,20.3
2016-06-02T00:26:53.214Z,20.3
2016-06-02T00:27:03.199Z,20.3
2016-06-02T00:27:12.886Z,20.3
2016-06-02T00:27:23.183Z,20.4
2016-06-02T00:27:33.217Z,20.5
2016-06-02T00:27:43.171Z,20.4
2016-06-02T00:27:53.171Z,20.4
2016-06-02T00:28:03.171Z,20.3
2016-06-02T00:28:13.202Z,20.3
2016-06-02T00:28:23.014Z,20.3
2016-06-02T00:28:33.016Z,20.3
2016-06-02T00:28:43.157Z,20.2
2016-06-02T00:28:53.016Z,20.3
2016-06-02T00:29:03.188Z,20.3
2016-06-02T00:29:13.141Z,20.3
2016-06-02T00:29:22.985Z,20.3
2016-06-02T00:29:33.208Z,20.3
2016-06-02T00:29:43.145Z,20.3
2016-06-02T00:29:53.145Z,20.3
2016-06-02T00:30:03.145Z,20.3
2016-06-02T00:30:13.192Z,20.3
2016-06-02T00:30:23.130Z,20.3
2016-06-02T00:30:33.147Z,20.3
2016-06-02T00:30:43.147Z,20.3
2016-06-02T00:30:53.179Z,20.3
2016-06-02T00:31:03.147Z,20.3
2016-06-02T00:31:13.163Z,20.2
2016-06-02T00:31:23.132Z,20.3
2016-06-02T00:31:33.165Z,20.3
2016-06-02T00:31:43.149Z,20.3
2016-06-02T00:31:53.134Z,20.2
2016-06-02T00:32:03.118Z,20.2
2016-06-02T00:32:13.149Z,20.2
2016-06-02T00:32:22.962Z,20.2
2016-06-02T00:32:33.121Z,20.1
2016-06-02T00:32:42.949Z,20.1
2016-06-02T00:32:53.105Z,20.1
2016-06-02T00:33:02.949Z,20.2
2016-06-02T00:33:13.105Z,20.1
2016-06-02T00:33:23.137Z,20.2
2016-06-02T00:33:33.124Z,20.2
2016-06-02T00:33:43.093Z,20.2
2016-06-02T00:33:53.108Z,20.1
2016-06-02T00:34:02.952Z,20
2016-06-02T00:34:13.108Z,20
2016-06-02T00:34:23.093Z,20
2016-06-02T00:34:33.096Z,20
2016-06-02T00:34:43.065Z,20
2016-06-02T00:34:53.174Z,20
2016-06-02T00:35:03.080Z,19.9
2016-06-02T00:35:13.065Z,19.9
2016-06-02T00:35:23.065Z,20
2016-06-02T00:35:33.082Z,20.1
2016-06-02T00:35:43.051Z,20.1
2016-06-02T00:35:53.067Z,20.1
2016-06-02T00:36:03.067Z,20
2016-06-02T00:36:13.067Z,20.1
2016-06-02T00:36:22.895Z,20.1
2016-06-02T00:36:33.054Z,20
2016-06-02T00:36:43.054Z,19.9
2016-06-02T00:36:53.054Z,20
2016-06-02T00:37:03.038Z,20
2016-06-02T00:37:13.038Z,20
2016-06-02T00:37:23.038Z,20.1
2016-06-02T00:37:33.073Z,20
2016-06-02T00:37:43.041Z,20
2016-06-02T00:37:52.885Z,20.1
2016-06-02T00:38:03.041Z,20.1
2016-06-02T00:38:12.916Z,20.1
2016-06-02T00:38:22.885Z,20
2016-06-02T00:38:33.029Z,20
2016-06-02T00:38:43.013Z,20.1
2016-06-02T00:38:52.888Z,20
2016-06-02T00:39:03.060Z,20
2016-06-02T00:39:12.857Z,20
2016-06-02T00:39:23.654Z,20.1
2016-06-02T00:39:33.046Z,20
2016-06-02T00:39:44.046Z,20
2016-06-02T00:39:53.156Z,20
2016-06-02T00:40:03.249Z,20
2016-06-02T00:40:12.859Z,20
2016-06-02T00:40:22.859Z,19.9
2016-06-02T00:40:32.846Z,20
2016-06-02T00:40:42.893Z,20
2016-06-02T00:40:53.049Z,20
2016-06-02T00:41:02.831Z,20
2016-06-02T00:41:12.987Z,20
2016-06-02T00:41:22.987Z,20
2016-06-02T00:41:32.989Z,20
2016-06-02T00:41:42.833Z,20
2016-06-02T00:41:52.973Z,20
2016-06-02T00:42:02.973Z,19.9
2016-06-02T00:42:12.973Z,19.9
2016-06-02T00:42:22.958Z,20
2016-06-02T00:42:32.976Z,19.9
2016-06-02T00:42:42.976Z,19.9
2016-06-02T00:42:52.961Z,20.1
2016-06-02T00:43:02.945Z,20
2016-06-02T00:43:12.961Z,20
2016-06-02T00:43:22.961Z,19.9
2016-06-02T00:43:32.979Z,20
2016-06-02T00:43:42.964Z,20
2016-06-02T00:43:52.948Z,20
2016-06-02T00:44:02.948Z,20
2016-06-02T00:44:12.948Z,20
2016-06-02T00:44:22.948Z,20.1
2016-06-02T00:44:32.935Z,20.2
2016-06-02T00:44:42.795Z,20.2
2016-06-02T00:44:52.998Z,20.1
2016-06-02T00:45:02.935Z,20.1
2016-06-02T00:45:12.920Z,20.2
2016-06-02T00:45:22.779Z,20.2
2016-06-02T00:45:32.984Z,20.2
2016-06-02T00:45:42.922Z,20.2
2016-06-02T00:45:52.922Z,20.3
2016-06-02T00:46:02.922Z,20.3
2016-06-02T00:46:12.906Z,20.3
2016-06-02T00:46:22.922Z,20.3
2016-06-02T00:46:32.909Z,20.3
2016-06-02T00:46:42.925Z,20.3
2016-06-02T00:46:52.940Z,20.3
2016-06-02T00:47:02.909Z,20.3
2016-06-02T00:47:12.893Z,20.2
2016-06-02T00:47:22.909Z,20.2
2016-06-02T00:47:32.896Z,20.3
2016-06-02T00:47:42.740Z,20.2
2016-06-02T00:47:52.896Z,20.3
2016-06-02T00:48:02.756Z,20.2
2016-06-02T00:48:12.943Z,20.3
2016-06-02T00:48:22.881Z,20.3
2016-06-02T00:48:32.898Z,20.3
2016-06-02T00:48:42.883Z,20.3
2016-06-02T00:48:52.914Z,20.3
2016-06-02T00:49:02.883Z,20.3
2016-06-02T00:49:12.883Z,20.3
2016-06-02T00:49:22.867Z,20.3
2016-06-02T00:49:32.901Z,20.2
2016-06-02T00:49:42.870Z,20.3
2016-06-02T00:49:52.855Z,20.3
2016-06-02T00:50:02.870Z,20.3
2016-06-02T00:50:12.855Z,20.3
2016-06-02T00:50:22.870Z,20.3
2016-06-02T00:50:32.733Z,20.2
2016-06-02T00:50:42.858Z,20.3
2016-06-02T00:50:52.873Z,20.2
2016-06-02T00:51:02.858Z,20.3
2016-06-02T00:51:12.842Z,20.2
2016-06-02T00:51:22.842Z,20.2
2016-06-02T00:51:32.845Z,20.1
2016-06-02T00:51:42.689Z,20.1
2016-06-02T00:51:52.861Z,20.1
2016-06-02T00:52:02.689Z,20.2
2016-06-02T00:52:12.829Z,20.2
2016-06-02T00:52:22.814Z,20.1
2016-06-02T00:52:32.847Z,20.1
2016-06-02T00:52:42.816Z,20
2016-06-02T00:52:52.831Z,20
2016-06-02T00:53:02.831Z,19.9
2016-06-02T00:53:12.675Z,20
2016-06-02T00:53:22.800Z,20
2016-06-02T00:53:32.662Z,20
2016-06-02T00:53:42.803Z,20
2016-06-02T00:53:52.803Z,20
2016-06-02T00:54:02.647Z,19.9
2016-06-02T00:54:12.787Z,20
2016-06-02T00:54:22.662Z,20
2016-06-02T00:54:32.681Z,20.1
2016-06-02T00:54:43.150Z,20.1
2016-06-02T00:54:53.244Z,20
2016-06-02T00:55:03.056Z,20
2016-06-02T00:55:13.525Z,20.1
2016-06-02T00:55:22.900Z,20
2016-06-02T00:55:32.792Z,20.2
2016-06-02T00:55:42.792Z,20.1
2016-06-02T00:55:52.621Z,20.1
2016-06-02T00:56:02.777Z,20
2016-06-02T00:56:12.777Z,20.1
2016-06-02T00:56:22.761Z,20.1
2016-06-02T00:56:32.764Z,20.2
2016-06-02T00:56:42.624Z,20
2016-06-02T00:56:52.780Z,20.1
2016-06-02T00:57:02.764Z,20.2
2016-06-02T00:57:12.749Z,20.2
2016-06-02T00:57:22.608Z,20.2
2016-06-02T00:57:32.641Z,20.1
2016-06-02T00:57:42.610Z,20.2
2016-06-02T00:57:52.735Z,20.3
2016-06-02T00:58:02.751Z,20.2
2016-06-02T00:58:12.735Z,20.3
2016-06-02T00:58:22.594Z,20.2
2016-06-02T00:58:32.738Z,20.2
2016-06-02T00:58:42.582Z,20.2
2016-06-02T00:58:52.644Z,20.1
2016-06-02T00:59:02.722Z,20.2
2016-06-02T00:59:12.738Z,20.2
2016-06-02T00:59:22.722Z,20.2
2016-06-02T00:59:32.725Z,20.2
2016-06-02T00:59:42.725Z,20.1
2016-06-02T00:59:52.725Z,20.1
2016-06-02T01:00:02.569Z,20.2
2016-06-02T01:00:12.772Z,20.1
2016-06-02T01:00:22.725Z,20.2
2016-06-02T01:00:32.713Z,20.1
2016-06-02T01:00:42.431Z,20.1
2016-06-02T01:00:52.572Z,20.2
2016-06-02T01:01:02.697Z,20
2016-06-02T01:01:12.697Z,20
2016-06-02T01:01:23.010Z,19.9
2016-06-02T01:01:32.699Z,19.9
2016-06-02T01:01:42.527Z,20
2016-06-02T01:01:52.715Z,20.1
2016-06-02T01:02:02.683Z,20
2016-06-02T01:02:12.699Z,20
2016-06-02T01:02:22.683Z,19.9
2016-06-02T01:02:32.686Z,19.8
2016-06-02T01:02:42.530Z,19.8
2016-06-02T01:02:52.671Z,19.9
2016-06-02T01:03:02.671Z,19.8
2016-06-02T01:03:12.671Z,19.8
2016-06-02T01:03:22.655Z,19.8
2016-06-02T01:03:32.674Z,19.9
2016-06-02T01:03:42.674Z,19.9
2016-06-02T01:03:52.689Z,19.8
2016-06-02T01:04:02.518Z,19.8
2016-06-02T01:04:12.533Z,19.9
2016-06-02T01:04:22.658Z,19.8
2016-06-02T01:04:32.645Z,19.8
2016-06-02T01:04:42.645Z,19.8
2016-06-02T01:04:52.520Z,19.9
2016-06-02T01:05:02.645Z,19.8
2016-06-02T01:05:12.645Z,19.9
2016-06-02T01:05:22.645Z,19.9
2016-06-02T01:05:32.648Z,19.9
2016-06-02T01:05:42.632Z,19.8
2016-06-02T01:05:52.632Z,19.9
2016-06-02T01:06:02.663Z,19.8
2016-06-02T01:06:12.632Z,19.9
2016-06-02T01:06:22.632Z,19.8
2016-06-02T01:06:32.338Z,19.9
2016-06-02T01:06:42.635Z,19.7
2016-06-02T01:06:52.619Z,19.8
2016-06-02T01:07:02.635Z,19.8
2016-06-02T01:07:12.619Z,19.8
2016-06-02T01:07:22.463Z,19.8
2016-06-02T01:07:32.606Z,19.8
2016-06-02T01:07:42.606Z,19.8
2016-06-02T01:07:52.465Z,19.9
2016-06-02T01:08:02.590Z,19.9
2016-06-02T01:08:12.590Z,19.9
2016-06-02T01:08:22.590Z,19.9
2016-06-02T01:08:32.593Z,19.8
2016-06-02T01:08:42.593Z,19.8
2016-06-02T01:08:52.593Z,19.8
2016-06-02T01:09:02.593Z,19.7
2016-06-02T01:09:12.577Z,19.9
2016-06-02T01:09:22.999Z,19.8
2016-06-02T01:09:32.737Z,19.9
2016-06-02T01:09:42.596Z,19.9
2016-06-02T01:09:52.955Z,19.8
2016-06-02T01:10:02.596Z,19.9
2016-06-02T01:10:12.596Z,19.9
2016-06-02T01:10:22.987Z,19.9
2016-06-02T01:10:32.598Z,19.8
2016-06-02T01:10:43.317Z,19.9
2016-06-02T01:10:52.582Z,19.9
2016-06-02T01:11:02.551Z,19.9
2016-06-02T01:11:12.411Z,20
2016-06-02T01:11:22.551Z,19.9
2016-06-02T01:11:32.429Z,19.9
2016-06-02T01:11:42.554Z,20
2016-06-02T01:11:52.554Z,19.9
2016-06-02T01:12:02.398Z,20
2016-06-02T01:12:12.539Z,20
2016-06-02T01:12:22.382Z,20
2016-06-02T01:12:32.526Z,20.1
2016-06-02T01:12:42.385Z,20
2016-06-02T01:12:52.542Z,19.9
2016-06-02T01:13:02.385Z,19.9
2016-06-02T01:13:12.526Z,19.8
2016-06-02T01:13:22.385Z,19.8
2016-06-02T01:13:32.560Z,19.9
2016-06-02T01:13:42.560Z,19.8
2016-06-02T01:13:52.529Z,19.8
2016-06-02T01:14:02.591Z,20
2016-06-02T01:14:12.373Z,19.9
2016-06-02T01:14:22.513Z,19.9
2016-06-02T01:14:32.516Z,19.9
2016-06-02T01:14:42.501Z,19.8
2016-06-02T01:14:52.501Z,20
2016-06-02T01:15:02.501Z,19.8
2016-06-02T01:15:12.485Z,20
2016-06-02T01:15:22.516Z,20
2016-06-02T01:15:32.487Z,20
2016-06-02T01:15:42.487Z,20
2016-06-02T01:15:52.487Z,20.1
2016-06-02T01:16:02.487Z,20
2016-06-02T01:16:12.487Z,20.1
2016-06-02T01:16:22.487Z,20
2016-06-02T01:16:32.334Z,20
2016-06-02T01:16:42.490Z,19.9
2016-06-02T01:16:52.334Z,20
2016-06-02T01:17:02.474Z,20
2016-06-02T01:17:12.318Z,20
2016-06-02T01:17:22.521Z,20
2016-06-02T01:17:32.321Z,20
2016-06-02T01:17:42.462Z,20
2016-06-02T01:17:52.368Z,20
2016-06-02T01:18:02.462Z,20
2016-06-02T01:18:12.493Z,20
2016-06-02T01:18:22.446Z,20
2016-06-02T01:18:32.448Z,19.9
2016-06-02T01:18:42.464Z,19.9
2016-06-02T01:18:52.292Z,20.1
2016-06-02T01:19:02.433Z,20
2016-06-02T01:19:12.292Z,20
2016-06-02T01:19:22.448Z,20.1
2016-06-02T01:19:32.436Z,20
2016-06-02T01:19:42.436Z,20
2016-06-02T01:19:52.451Z,20
2016-06-02T01:20:02.373Z,20
2016-06-02T01:20:12.139Z,20
2016-06-02T01:20:22.279Z,20
2016-06-02T01:20:32.407Z,20
2016-06-02T01:20:42.454Z,20
2016-06-02T01:20:52.267Z,20
2016-06-02T01:21:02.423Z,20
2016-06-02T01:21:12.407Z,20
2016-06-02T01:21:22.407Z,20
2016-06-02T01:21:32.394Z,20
2016-06-02T01:21:42.409Z,20
2016-06-02T01:21:52.425Z,20
2016-06-02T01:22:02.409Z,20
2016-06-02T01:22:12.378Z,20
2016-06-02T01:22:22.409Z,20
2016-06-02T01:22:32.397Z,20
2016-06-02T01:22:42.397Z,20.1
2016-06-02T01:22:52.240Z,19.9
2016-06-02T01:23:02.381Z,20
2016-06-02T01:23:12.240Z,20.1
2016-06-02T01:23:22.334Z,20.1
2016-06-02T01:23:32.384Z,19.9
2016-06-02T01:23:42.228Z,20
2016-06-02T01:23:52.368Z,20
2016-06-02T01:24:02.243Z,19.9
2016-06-02T01:24:12.212Z,20
2016-06-02T01:24:22.368Z,19.9
2016-06-02T01:24:32.746Z,19.9
2016-06-02T01:24:42.887Z,19.8
2016-06-02T01:24:52.856Z,20
2016-06-02T01:25:03.059Z,19.9
2016-06-02T01:25:12.731Z,19.8
2016-06-02T01:25:22.371Z,19.9
2016-06-02T01:25:32.202Z,19.9
2016-06-02T01:25:42.061Z,19.9
2016-06-02T01:25:52.342Z,20
2016-06-02T01:26:02.358Z,19.9
2016-06-02T01:26:12.202Z,19.9
2016-06-02T01:26:22.327Z,19.8
2016-06-02T01:26:32.330Z,19.8
2016-06-02T01:26:42.345Z,19.8
2016-06-02T01:26:52.173Z,19.8
2016-06-02T01:27:02.173Z,19.9
2016-06-02T01:27:12.173Z,19.9
2016-06-02T01:27:22.314Z,19.9
2016-06-02T01:27:32.333Z,19.8
2016-06-02T01:27:42.301Z,19.9
2016-06-02T01:27:52.161Z,20
2016-06-02T01:28:02.317Z,19.9
2016-06-02T01:28:12.333Z,20
2016-06-02T01:28:22.301Z,20
2016-06-02T01:28:32.303Z,20.2
2016-06-02T01:28:42.319Z,20.1
2016-06-02T01:28:52.303Z,20.1
2016-06-02T01:29:02.131Z,20.1
2016-06-02T01:29:12.303Z,20.1
2016-06-02T01:29:22.194Z,20.1
2016-06-02T01:29:32.322Z,20.2
2016-06-02T01:29:42.291Z,20.3
2016-06-02T01:29:52.134Z,20.2
2016-06-02T01:30:02.181Z,20.3
2016-06-02T01:30:12.275Z,20.3
2016-06-02T01:30:22.322Z,20.2
2016-06-02T01:30:32.278Z,20.2
2016-06-02T01:30:42.262Z,20.3
2016-06-02T01:30:52.122Z,20.3
2016-06-02T01:31:02.262Z,20.3
2016-06-02T01:31:11.966Z,20.3
2016-06-02T01:31:22.294Z,20.3
2016-06-02T01:31:32.264Z,20.2
2016-06-02T01:31:42.280Z,20.3
2016-06-02T01:31:52.249Z,20.2
2016-06-02T01:32:02.108Z,20.2
2016-06-02T01:32:12.249Z,20.3
2016-06-02T01:32:22.249Z,20.3
2016-06-02T01:32:32.108Z,20.2
2016-06-02T01:32:42.158Z,20.2
2016-06-02T01:32:52.221Z,20.3
2016-06-02T01:33:02.252Z,20.3
2016-06-02T01:33:12.096Z,20.3
2016-06-02T01:33:22.252Z,20.3
2016-06-02T01:33:32.236Z,20.3
2016-06-02T01:33:42.083Z,20.3
2016-06-02T01:33:52.239Z,20.3
2016-06-02T01:34:02.099Z,20.3
2016-06-02T01:34:12.224Z,20.3
2016-06-02T01:34:22.208Z,20.2
2016-06-02T01:34:32.208Z,20.3
2016-06-02T01:34:42.210Z,20.3
2016-06-02T01:34:52.226Z,20.3
2016-06-02T01:35:02.226Z,20.2
2016-06-02T01:35:12.210Z,20.3
2016-06-02T01:35:22.194Z,20.3
2016-06-02T01:35:32.510Z,20.3
2016-06-02T01:35:42.104Z,20.3
2016-06-02T01:35:52.291Z,20.2
2016-06-02T01:36:02.057Z,20.3
2016-06-02T01:36:12.182Z,20.3
2016-06-02T01:36:22.197Z,20.3
2016-06-02T01:36:32.197Z,20.3
2016-06-02T01:36:42.185Z,20.3
2016-06-02T01:36:52.044Z,20.3
2016-06-02T01:37:02.185Z,20.3
2016-06-02T01:37:12.216Z,20.3
2016-06-02T01:37:22.060Z,20.3
2016-06-02T01:37:32.169Z,20.3
2016-06-02T01:37:42.187Z,20.3
2016-06-02T01:37:52.218Z,20.3
2016-06-02T01:38:02.155Z,20.3
2016-06-02T01:38:12.171Z,20.3
2016-06-02T01:38:22.187Z,20.3
2016-06-02T01:38:32.187Z,20.2
2016-06-02T01:38:42.065Z,20.3
2016-06-02T01:38:52.174Z,20.3
2016-06-02T01:39:02.158Z,20.2
2016-06-02T01:39:12.190Z,20.2
2016-06-02T01:39:22.158Z,20.2
2016-06-02T01:39:32.724Z,20.2
2016-06-02T01:39:42.161Z,20.1
2016-06-02T01:39:52.615Z,20.1
2016-06-02T01:40:02.099Z,20.2
2016-06-02T01:40:11.849Z,20.1
2016-06-02T01:40:22.005Z,20
2016-06-02T01:40:32.789Z,20
2016-06-02T01:40:42.071Z,19.8
2016-06-02T01:40:52.133Z,19.8
2016-06-02T01:41:02.133Z,19.8
2016-06-02T01:41:12.180Z,19.8
2016-06-02T01:41:22.149Z,19.7
2016-06-02T01:41:32.118Z,19.6
2016-06-02T01:41:42.120Z,19.6
2016-06-02T01:41:52.370Z,19.7
2016-06-02T01:42:01.979Z,19.7
2016-06-02T01:42:12.120Z,19.7
2016-06-02T01:42:22.104Z,19.7
2016-06-02T01:42:32.120Z,19.6
2016-06-02T01:42:42.123Z,19.7
2016-06-02T01:42:52.138Z,19.7
2016-06-02T01:43:02.123Z,19.7
2016-06-02T01:43:12.169Z,19.8
2016-06-02T01:43:22.107Z,19.8
2016-06-02T01:43:32.091Z,19.7
2016-06-02T01:43:41.969Z,19.7
2016-06-02T01:43:51.938Z,19.7
2016-06-02T01:44:01.969Z,19.7
2016-06-02T01:44:12.079Z,19.7
2016-06-02T01:44:21.985Z,19.7
2016-06-02T01:44:31.922Z,19.8
2016-06-02T01:44:42.081Z,19.8
2016-06-02T01:44:51.784Z,19.8
2016-06-02T01:45:02.065Z,19.9
2016-06-02T01:45:12.081Z,19.8
2016-06-02T01:45:22.065Z,19.8
2016-06-02T01:45:32.065Z,19.8
2016-06-02T01:45:42.068Z,19.8
2016-06-02T01:45:51.912Z,19.8
2016-06-02T01:46:02.037Z,19.8
2016-06-02T01:46:12.052Z,19.8
2016-06-02T01:46:22.052Z,19.8
2016-06-02T01:46:31.881Z,19.8
2016-06-02T01:46:42.054Z,19.9
2016-06-02T01:46:52.054Z,19.7
2016-06-02T01:47:01.945Z,19.7
2016-06-02T01:47:12.117Z,19.8
2016-06-02T01:47:22.039Z,19.7
2016-06-02T01:47:32.336Z,19.8
2016-06-02T01:47:42.042Z,19.8
2016-06-02T01:47:52.042Z,19.7
2016-06-02T01:48:01.948Z,19.8
2016-06-02T01:48:12.026Z,19.7
2016-06-02T01:48:21.729Z,19.7
2016-06-02T01:48:31.870Z,19.7
2016-06-02T01:48:42.014Z,19.7
2016-06-02T01:48:52.014Z,19.8
2016-06-02T01:49:02.045Z,19.8
2016-06-02T01:49:11.873Z,19.8
2016-06-02T01:49:21.998Z,19.8
2016-06-02T01:49:32.310Z,19.8
2016-06-02T01:49:42.000Z,19.8
2016-06-02T01:49:52.031Z,19.8
2016-06-02T01:50:02.000Z,19.7
2016-06-02T01:50:12.000Z,19.7
2016-06-02T01:50:21.984Z,19.6
2016-06-02T01:50:32.031Z,19.7
2016-06-02T01:50:42.019Z,19.7
2016-06-02T01:50:51.987Z,19.7
2016-06-02T01:51:01.987Z,19.8
2016-06-02T01:51:11.831Z,19.7
2016-06-02T01:51:21.831Z,19.7
2016-06-02T01:51:31.987Z,19.7
2016-06-02T01:51:41.975Z,19.7
2016-06-02T01:51:51.818Z,19.7
2016-06-02T01:52:01.850Z,19.7
2016-06-02T01:52:12.272Z,19.8
2016-06-02T01:52:21.959Z,19.8
2016-06-02T01:52:31.990Z,19.7
2016-06-02T01:52:41.978Z,19.8
2016-06-02T01:52:52.025Z,19.7
2016-06-02T01:53:01.946Z,19.8
2016-06-02T01:53:11.993Z,19.7
2016-06-02T01:53:21.946Z,19.7
2016-06-02T01:53:31.962Z,19.7
2016-06-02T01:53:41.948Z,19.8
2016-06-02T01:53:51.980Z,19.8
2016-06-02T01:54:01.933Z,19.8
2016-06-02T01:54:11.948Z,19.8
2016-06-02T01:54:21.933Z,19.7
2016-06-02T01:54:31.777Z,19.8
2016-06-02T01:54:42.311Z,19.8
2016-06-02T01:54:51.811Z,19.7
2016-06-02T01:55:02.045Z,19.8
2016-06-02T01:55:11.967Z,19.8
2016-06-02T01:55:22.748Z,19.8
2016-06-02T01:55:32.311Z,19.7
2016-06-02T01:55:42.110Z,19.7
2016-06-02T01:55:52.469Z,19.8
2016-06-02T01:56:01.922Z,19.8
2016-06-02T01:56:11.782Z,19.8
2016-06-02T01:56:21.922Z,19.7
2016-06-02T01:56:31.922Z,19.8
2016-06-02T01:56:41.926Z,19.8
2016-06-02T01:56:52.207Z,19.8
2016-06-02T01:57:01.911Z,19.7
2016-06-02T01:57:11.942Z,19.7
2016-06-02T01:57:21.911Z,19.7
2016-06-02T01:57:31.817Z,19.7
2016-06-02T01:57:41.740Z,19.6
2016-06-02T01:57:51.740Z,19.5
2016-06-02T01:58:01.880Z,19.5
2016-06-02T01:58:11.990Z,19.6
2016-06-02T01:58:21.724Z,19.6
2016-06-02T01:58:31.724Z,19.5
2016-06-02T01:58:41.869Z,19.4
2016-06-02T01:58:51.947Z,19.5
2016-06-02T01:59:01.869Z,19.5
2016-06-02T01:59:11.869Z,19.6
2016-06-02T01:59:21.712Z,19.5
2016-06-02T01:59:31.900Z,19.5
2016-06-02T01:59:41.871Z,19.5
2016-06-02T01:59:51.886Z,19.6
2016-06-02T02:00:01.855Z,19.5
2016-06-02T02:00:11.949Z,19.5
2016-06-02T02:00:21.871Z,19.5
2016-06-02T02:00:31.855Z,19.6
2016-06-02T02:00:41.546Z,19.5
2016-06-02T02:00:51.811Z,19.5
2016-06-02T02:01:01.858Z,19.5
2016-06-02T02:01:11.858Z,19.6
2016-06-02T02:01:21.827Z,19.5
2016-06-02T02:01:31.921Z,19.6
2016-06-02T02:01:41.829Z,19.6
2016-06-02T02:01:51.844Z,19.6
2016-06-02T02:02:01.829Z,19.6
2016-06-02T02:02:11.860Z,19.6
2016-06-02T02:02:21.829Z,19.5
2016-06-02T02:02:31.860Z,19.5
2016-06-02T02:02:41.832Z,19.5
2016-06-02T02:02:51.863Z,19.6
2016-06-02T02:03:01.676Z,19.6
2016-06-02T02:03:11.816Z,19.6
2016-06-02T02:03:21.801Z,19.5
2016-06-02T02:03:31.832Z,19.6
2016-06-02T02:03:41.804Z,19.7
2016-06-02T02:03:51.647Z,19.7
2016-06-02T02:04:01.804Z,19.6
2016-06-02T02:04:11.804Z,19.7
2016-06-02T02:04:21.788Z,19.6
2016-06-02T02:04:31.804Z,19.7
2016-06-02T02:04:41.635Z,19.6
2016-06-02T02:04:51.807Z,19.6
2016-06-02T02:05:01.791Z,19.7
2016-06-02T02:05:11.494Z,19.7
2016-06-02T02:05:21.791Z,19.6
2016-06-02T02:05:31.838Z,19.6
2016-06-02T02:05:41.793Z,19.6
2016-06-02T02:05:51.793Z,19.6
2016-06-02T02:06:01.793Z,19.6
2016-06-02T02:06:11.777Z,19.6
2016-06-02T02:06:21.762Z,19.7
2016-06-02T02:06:31.762Z,19.7
2016-06-02T02:06:41.765Z,19.7
2016-06-02T02:06:51.765Z,19.6
2016-06-02T02:07:01.765Z,19.6
2016-06-02T02:07:11.780Z,19.6
2016-06-02T02:07:21.749Z,19.5
2016-06-02T02:07:31.780Z,19.5
2016-06-02T02:07:41.454Z,19.6
2016-06-02T02:07:51.767Z,19.6
2016-06-02T02:08:01.595Z,19.6
2016-06-02T02:08:11.782Z,19.6
2016-06-02T02:08:21.735Z,19.6
2016-06-02T02:08:31.751Z,19.5
2016-06-02T02:08:41.755Z,19.5
2016-06-02T02:08:51.646Z,19.6
2016-06-02T02:09:01.568Z,19.6
2016-06-02T02:09:11.739Z,19.4
2016-06-02T02:09:21.724Z,19.4
2016-06-02T02:09:31.568Z,19.4
2016-06-02T02:09:42.430Z,19.4
2016-06-02T02:09:52.289Z,19.4
2016-06-02T02:10:01.571Z,19.4
2016-06-02T02:10:11.758Z,19.4
2016-06-02T02:10:21.805Z,19.4
2016-06-02T02:10:31.555Z,19.4
2016-06-02T02:10:42.369Z,19.4
2016-06-02T02:10:52.010Z,19.3
2016-06-02T02:11:01.698Z,19.3
2016-06-02T02:11:11.698Z,19.4
2016-06-02T02:11:21.698Z,19.4
2016-06-02T02:11:31.744Z,19.4
2016-06-02T02:11:41.701Z,19.3
2016-06-02T02:11:51.685Z,19.3
2016-06-02T02:12:01.685Z,19.3
2016-06-02T02:12:11.701Z,19.3
2016-06-02T02:12:21.669Z,19.3
2016-06-02T02:12:31.685Z,19.4
2016-06-02T02:12:41.704Z,19.3
2016-06-02T02:12:51.829Z,19.3
2016-06-02T02:13:01.688Z,19.3
2016-06-02T02:13:11.672Z,19.4
2016-06-02T02:13:21.672Z,19.3
2016-06-02T02:13:31.704Z,19.4
2016-06-02T02:13:41.659Z,19.3
2016-06-02T02:13:51.518Z,19.4
2016-06-02T02:14:01.377Z,19.3
2016-06-02T02:14:11.643Z,19.4
2016-06-02T02:14:21.643Z,19.4